sensor_id;sensor_type;location;lat;lon;timestamp;pressure;altitude;pressure_sealevel;temperature;humidity
58975;BME280;44751;52.236;5.178;2023-05-11T00:01:37;101315.38;;;13.24;100.00
58975;BME280;44751;52.236;5.178;2023-05-11T00:04:03;101312.56;;;13.33;100.00
58975;BME280;44751;52.236;5.178;2023-05-11T00:06:30;101309.19;;;13.30;100.00
58975;BME280;44751;52.236;5.178;2023-05-11T00:08:57;101311.00;;;13.38;100.00
58975;BME280;44751;52.236;5.178;2023-05-11T00:11:26;101313.22;;;13.35;100.00
58975;BME280;44751;52.236;5.178;2023-05-11T00:13:53;101307.78;;;13.35;100.00
58975;BME280;44751;52.236;5.178;2023-05-11T00:16:19;101309.09;;;13.39;100.00
58975;BME280;44751;52.236;5.178;2023-05-11T00:18:46;101310.22;;;13.45;100.00
58975;BME280;44751;52.236;5.178;2023-05-11T00:21:22;101313.88;;;13.37;100.00
58975;BME280;44751;52.236;5.178;2023-05-11T00:23:48;101306.22;;;13.25;100.00
58975;BME280;44751;52.236;5.178;2023-05-11T00:26:15;101307.44;;;13.23;100.00
58975;BME280;44751;52.236;5.178;2023-05-11T00:28:41;101301.25;;;13.14;100.00
58975;BME280;44751;52.236;5.178;2023-05-11T00:31:09;101305.00;;;13.13;100.00
58975;BME280;44751;52.236;5.178;2023-05-11T00:33:38;101308.34;;;13.15;100.00
58975;BME280;44751;52.236;5.178;2023-05-11T00:36:05;101310.13;;;13.08;100.00
58975;BME280;44751;52.236;5.178;2023-05-11T00:38:33;101302.72;;;13.01;100.00
58975;BME280;44751;52.236;5.178;2023-05-11T00:41:01;101302.44;;;12.96;100.00
58975;BME280;44751;52.236;5.178;2023-05-11T00:43:28;101304.91;;;13.06;100.00
58975;BME280;44751;52.236;5.178;2023-05-11T00:45:55;101297.41;;;13.08;100.00
58975;BME280;44751;52.236;5.178;2023-05-11T00:48:22;101289.63;;;13.05;100.00
58975;BME280;44751;52.236;5.178;2023-05-11T00:50:49;101300.13;;;13.08;100.00
58975;BME280;44751;52.236;5.178;2023-05-11T00:53:15;101289.94;;;13.10;100.00
58975;BME280;44751;52.236;5.178;2023-05-11T00:55:42;101299.66;;;13.04;100.00
58975;BME280;44751;52.236;5.178;2023-05-11T00:58:14;101290.84;;;13.02;100.00
58975;BME280;44751;52.236;5.178;2023-05-11T01:00:42;101298.81;;;13.04;100.00
58975;BME280;44751;52.236;5.178;2023-05-11T01:03:08;101301.06;;;13.00;100.00
58975;BME280;44751;52.236;5.178;2023-05-11T01:08:41;101315.50;;;12.93;100.00
58975;BME280;44751;52.236;5.178;2023-05-11T01:11:16;101309.25;;;12.92;100.00
58975;BME280;44751;52.236;5.178;2023-05-11T01:13:53;101319.69;;;12.95;100.00
58975;BME280;44751;52.236;5.178;2023-05-11T01:16:26;101317.66;;;12.97;100.00
58975;BME280;44751;52.236;5.178;2023-05-11T01:19:50;101321.88;;;13.00;100.00
58975;BME280;44751;52.236;5.178;2023-05-11T01:21:50;101324.84;;;12.90;100.00
58975;BME280;44751;52.236;5.178;2023-05-11T01:24:42;101318.03;;;12.94;100.00
58975;BME280;44751;52.236;5.178;2023-05-11T01:27:28;101313.63;;;12.93;100.00
58975;BME280;44751;52.236;5.178;2023-05-11T01:30:20;101312.31;;;12.89;100.00
58975;BME280;44751;52.236;5.178;2023-05-11T01:32:50;101311.28;;;12.90;100.00
58975;BME280;44751;52.236;5.178;2023-05-11T01:35:21;101305.78;;;12.98;100.00
58975;BME280;44751;52.236;5.178;2023-05-11T01:37:50;101307.50;;;12.99;100.00
58975;BME280;44751;52.236;5.178;2023-05-11T01:40:21;101306.38;;;12.94;100.00
58975;BME280;44751;52.236;5.178;2023-05-11T01:43:00;101302.72;;;13.01;100.00
58975;BME280;44751;52.236;5.178;2023-05-11T01:45:28;101307.97;;;13.03;100.00
58975;BME280;44751;52.236;5.178;2023-05-11T01:48:04;101301.16;;;13.07;100.00
58975;BME280;44751;52.236;5.178;2023-05-11T01:50:36;101305.34;;;13.10;100.00
58975;BME280;44751;52.236;5.178;2023-05-11T01:53:05;101300.88;;;13.02;100.00
58975;BME280;44751;52.236;5.178;2023-05-11T01:55:35;101306.03;;;13.12;100.00
58975;BME280;44751;52.236;5.178;2023-05-11T01:58:09;101303.41;;;13.03;100.00
58975;BME280;44751;52.236;5.178;2023-05-11T02:00:36;101309.47;;;13.06;100.00
58975;BME280;44751;52.236;5.178;2023-05-11T02:03:05;101301.25;;;13.14;100.00
58975;BME280;44751;52.236;5.178;2023-05-11T02:05:33;101304.13;;;13.12;100.00
58975;BME280;44751;52.236;5.178;2023-05-11T02:08:04;101307.03;;;13.11;100.00
58975;BME280;44751;52.236;5.178;2023-05-11T02:10:32;101319.94;;;13.09;100.00
58975;BME280;44751;52.236;5.178;2023-05-11T02:13:01;101319.44;;;13.05;100.00
58975;BME280;44751;52.236;5.178;2023-05-11T02:15:32;101321.78;;;13.08;100.00
58975;BME280;44751;52.236;5.178;2023-05-11T02:18:07;101323.94;;;13.13;100.00
58975;BME280;44751;52.236;5.178;2023-05-11T02:20:35;101325.34;;;13.09;100.00
58975;BME280;44751;52.236;5.178;2023-05-11T02:23:06;101323.66;;;13.08;100.00
58975;BME280;44751;52.236;5.178;2023-05-11T02:25:33;101331.31;;;13.04;100.00
58975;BME280;44751;52.236;5.178;2023-05-11T02:28:01;101330.47;;;13.03;100.00
58975;BME280;44751;52.236;5.178;2023-05-11T02:30:30;101332.34;;;13.03;100.00
58975;BME280;44751;52.236;5.178;2023-05-11T02:33:02;101326.91;;;13.03;100.00
58975;BME280;44751;52.236;5.178;2023-05-11T02:35:41;101325.06;;;13.03;100.00
58975;BME280;44751;52.236;5.178;2023-05-11T02:38:09;101322.34;;;13.03;100.00
58975;BME280;44751;52.236;5.178;2023-05-11T02:40:45;101327.56;;;13.05;100.00
58975;BME280;44751;52.236;5.178;2023-05-11T02:43:23;101324.03;;;13.04;100.00
58975;BME280;44751;52.236;5.178;2023-05-11T02:45:53;101323.75;;;12.99;100.00
58975;BME280;44751;52.236;5.178;2023-05-11T02:48:31;101332.97;;;13.05;100.00
58975;BME280;44751;52.236;5.178;2023-05-11T02:51:01;101326.84;;;13.11;100.00
58975;BME280;44751;52.236;5.178;2023-05-11T02:53:31;101327.88;;;13.10;100.00
58975;BME280;44751;52.236;5.178;2023-05-11T02:56:13;101321.97;;;13.07;100.00
58975;BME280;44751;52.236;5.178;2023-05-11T02:58:40;101330.75;;;13.09;100.00
58975;BME280;44751;52.236;5.178;2023-05-11T03:01:07;101331.13;;;13.06;100.00
58975;BME280;44751;52.236;5.178;2023-05-11T03:03:38;101327.47;;;12.98;100.00
58975;BME280;44751;52.236;5.178;2023-05-11T03:06:04;101336.91;;;13.02;100.00
58975;BME280;44751;52.236;5.178;2023-05-11T03:08:31;101322.41;;;12.95;100.00
58975;BME280;44751;52.236;5.178;2023-05-11T03:10:58;101327.91;;;12.87;100.00
58975;BME280;44751;52.236;5.178;2023-05-11T03:13:26;101329.97;;;12.85;100.00
58975;BME280;44751;52.236;5.178;2023-05-11T03:15:56;101321.63;;;12.71;100.00
58975;BME280;44751;52.236;5.178;2023-05-11T03:18:25;101333.56;;;12.77;100.00
58975;BME280;44751;52.236;5.178;2023-05-11T03:20:51;101325.44;;;12.77;100.00
58975;BME280;44751;52.236;5.178;2023-05-11T03:23:18;101323.94;;;12.74;100.00
58975;BME280;44751;52.236;5.178;2023-05-11T03:25:45;101320.94;;;12.69;100.00
58975;BME280;44751;52.236;5.178;2023-05-11T03:28:15;101323.13;;;12.74;100.00
58975;BME280;44751;52.236;5.178;2023-05-11T03:30:44;101315.53;;;12.69;100.00
58975;BME280;44751;52.236;5.178;2023-05-11T03:33:12;101317.22;;;12.70;100.00
58975;BME280;44751;52.236;5.178;2023-05-11T03:35:40;101311.34;;;12.67;100.00
58975;BME280;44751;52.236;5.178;2023-05-11T03:38:20;101310.47;;;12.66;100.00
58975;BME280;44751;52.236;5.178;2023-05-11T03:40:48;101312.66;;;12.71;100.00
58975;BME280;44751;52.236;5.178;2023-05-11T03:43:18;101321.31;;;12.66;100.00
58975;BME280;44751;52.236;5.178;2023-05-11T03:45:59;101316.97;;;12.80;100.00
58975;BME280;44751;52.236;5.178;2023-05-11T03:48:27;101322.88;;;12.84;100.00
58975;BME280;44751;52.236;5.178;2023-05-11T03:50:54;101323.50;;;12.86;100.00
58975;BME280;44751;52.236;5.178;2023-05-11T03:53:21;101311.47;;;12.88;100.00
58975;BME280;44751;52.236;5.178;2023-05-11T03:55:48;101306.44;;;12.85;100.00
58975;BME280;44751;52.236;5.178;2023-05-11T03:58:17;101311.47;;;12.88;100.00
58975;BME280;44751;52.236;5.178;2023-05-11T04:00:43;101313.78;;;12.76;100.00
58975;BME280;44751;52.236;5.178;2023-05-11T04:03:10;101311.28;;;12.90;100.00
58975;BME280;44751;52.236;5.178;2023-05-11T04:05:39;101309.91;;;12.94;100.00
58975;BME280;44751;52.236;5.178;2023-05-11T04:08:06;101316.53;;;12.91;100.00
58975;BME280;44751;52.236;5.178;2023-05-11T04:10:35;101304.75;;;12.84;100.00
58975;BME280;44751;52.236;5.178;2023-05-11T04:13:02;101316.31;;;12.78;100.00
58975;BME280;44751;52.236;5.178;2023-05-11T04:15:29;101311.38;;;12.82;100.00
58975;BME280;44751;52.236;5.178;2023-05-11T04:17:58;101310.13;;;12.69;100.00
58975;BME280;44751;52.236;5.178;2023-05-11T04:20:25;101307.13;;;12.64;100.00
58975;BME280;44751;52.236;5.178;2023-05-11T04:22:54;101309.66;;;12.65;100.00
58975;BME280;44751;52.236;5.178;2023-05-11T04:25:21;101314.94;;;12.59;100.00
58975;BME280;44751;52.236;5.178;2023-05-11T04:27:47;101308.63;;;12.67;100.00
58975;BME280;44751;52.236;5.178;2023-05-11T04:30:14;101314.34;;;12.48;100.00
58975;BME280;44751;52.236;5.178;2023-05-11T04:32:45;101318.19;;;12.54;100.00
58975;BME280;44751;52.236;5.178;2023-05-11T04:35:11;101317.94;;;12.40;100.00
58975;BME280;44751;52.236;5.178;2023-05-11T04:37:38;101325.88;;;12.42;100.00
58975;BME280;44751;52.236;5.178;2023-05-11T04:40:05;101328.66;;;12.57;100.00
58975;BME280;44751;52.236;5.178;2023-05-11T04:42:40;101323.72;;;12.61;100.00
58975;BME280;44751;52.236;5.178;2023-05-11T04:45:08;101320.94;;;12.69;100.00
58975;BME280;44751;52.236;5.178;2023-05-11T04:47:34;101324.50;;;12.70;100.00
58975;BME280;44751;52.236;5.178;2023-05-11T04:50:01;101329.25;;;12.68;100.00
58975;BME280;44751;52.236;5.178;2023-05-11T04:52:37;101326.75;;;12.81;100.00
58975;BME280;44751;52.236;5.178;2023-05-11T04:55:08;101327.97;;;12.78;100.00
58975;BME280;44751;52.236;5.178;2023-05-11T04:57:35;101324.53;;;12.85;100.00
58975;BME280;44751;52.236;5.178;2023-05-11T05:00:05;101333.44;;;12.94;100.00
58975;BME280;44751;52.236;5.178;2023-05-11T05:02:36;101325.75;;;12.82;100.00
58975;BME280;44751;52.236;5.178;2023-05-11T05:05:03;101328.28;;;12.84;100.00
58975;BME280;44751;52.236;5.178;2023-05-11T05:07:30;101331.81;;;12.84;100.00
58975;BME280;44751;52.236;5.178;2023-05-11T05:09:56;101336.94;;;12.79;100.00
58975;BME280;44751;52.236;5.178;2023-05-11T05:12:30;101340.53;;;12.95;100.00
58975;BME280;44751;52.236;5.178;2023-05-11T05:15:03;101335.59;;;12.98;100.00
58975;BME280;44751;52.236;5.178;2023-05-11T05:17:34;101349.97;;;12.99;100.00
58975;BME280;44751;52.236;5.178;2023-05-11T05:20:03;101345.69;;;13.04;100.00
58975;BME280;44751;52.236;5.178;2023-05-11T05:22:49;101352.63;;;13.07;100.00
58975;BME280;44751;52.236;5.178;2023-05-11T05:25:37;101342.25;;;13.11;100.00
58975;BME280;44751;52.236;5.178;2023-05-11T05:28:05;101355.72;;;13.19;100.00
58975;BME280;44751;52.236;5.178;2023-05-11T05:30:31;101342.84;;;13.21;100.00
58975;BME280;44751;52.236;5.178;2023-05-11T05:33:08;101356.00;;;13.24;100.00
58975;BME280;44751;52.236;5.178;2023-05-11T05:35:35;101366.47;;;13.27;100.00
58975;BME280;44751;52.236;5.178;2023-05-11T05:38:02;101369.94;;;13.21;100.00
58975;BME280;44751;52.236;5.178;2023-05-11T05:40:28;101365.75;;;13.34;100.00
58975;BME280;44751;52.236;5.178;2023-05-11T05:42:57;101377.63;;;13.48;100.00
58975;BME280;44751;52.236;5.178;2023-05-11T05:45:30;101378.50;;;13.48;100.00
58975;BME280;44751;52.236;5.178;2023-05-11T05:47:57;101374.22;;;13.54;100.00
58975;BME280;44751;52.236;5.178;2023-05-11T05:50:25;101373.06;;;13.78;100.00
58975;BME280;44751;52.236;5.178;2023-05-11T05:52:52;101380.19;;;13.64;100.00
58975;BME280;44751;52.236;5.178;2023-05-11T05:55:23;101385.06;;;13.69;100.00
58975;BME280;44751;52.236;5.178;2023-05-11T05:57:50;101395.72;;;13.86;100.00
58975;BME280;44751;52.236;5.178;2023-05-11T06:00:39;101388.13;;;13.81;100.00
58975;BME280;44751;52.236;5.178;2023-05-11T06:03:06;101400.94;;;13.87;100.00
58975;BME280;44751;52.236;5.178;2023-05-11T06:05:35;101401.59;;;13.89;100.00
58975;BME280;44751;52.236;5.178;2023-05-11T06:08:02;101390.19;;;13.94;100.00
58975;BME280;44751;52.236;5.178;2023-05-11T06:13:46;101394.41;;;13.81;100.00
58975;BME280;44751;52.236;5.178;2023-05-11T06:16:31;101401.59;;;13.74;100.00
58975;BME280;44751;52.236;5.178;2023-05-11T06:18:58;101397.56;;;13.70;100.00
58975;BME280;44751;52.236;5.178;2023-05-11T06:21:26;101397.94;;;13.67;100.00
58975;BME280;44751;52.236;5.178;2023-05-11T06:24:01;101405.16;;;13.75;100.00
58975;BME280;44751;52.236;5.178;2023-05-11T06:26:44;101396.53;;;13.56;100.00
58975;BME280;44751;52.236;5.178;2023-05-11T06:29:27;101394.94;;;13.77;100.00
58975;BME280;44751;52.236;5.178;2023-05-11T06:32:25;101397.88;;;13.90;100.00
58975;BME280;44751;52.236;5.178;2023-05-11T06:34:53;101400.84;;;13.96;100.00
58975;BME280;44751;52.236;5.178;2023-05-11T06:37:44;101404.69;;;14.01;100.00
58975;BME280;44751;52.236;5.178;2023-05-11T06:40:14;101401.97;;;14.01;100.00
58975;BME280;44751;52.236;5.178;2023-05-11T06:43:29;101408.31;;;14.09;100.00
58975;BME280;44751;52.236;5.178;2023-05-11T06:46:14;101405.63;;;14.09;100.00
58975;BME280;44751;52.236;5.178;2023-05-11T06:48:47;101404.56;;;14.10;100.00
58975;BME280;44751;52.236;5.178;2023-05-11T06:51:24;101403.47;;;14.04;100.00
58975;BME280;44751;52.236;5.178;2023-05-11T06:54:05;101409.06;;;14.02;100.00
58975;BME280;44751;52.236;5.178;2023-05-11T06:56:32;101409.34;;;14.07;100.00
58975;BME280;44751;52.236;5.178;2023-05-11T06:58:59;101413.34;;;14.12;100.00
58975;BME280;44751;52.236;5.178;2023-05-11T07:01:28;101405.06;;;13.98;100.00
58975;BME280;44751;52.236;5.178;2023-05-11T07:04:05;101412.13;;;14.14;100.00
58975;BME280;44751;52.236;5.178;2023-05-11T07:06:32;101410.56;;;14.05;100.00
58975;BME280;44751;52.236;5.178;2023-05-11T07:08:58;101408.03;;;14.03;100.00
58975;BME280;44751;52.236;5.178;2023-05-11T07:12:03;101415.97;;;14.05;100.00
58975;BME280;44751;52.236;5.178;2023-05-11T07:15:10;101407.72;;;14.28;100.00
58975;BME280;44751;52.236;5.178;2023-05-11T07:18:12;101410.03;;;14.31;100.00
58975;BME280;44751;52.236;5.178;2023-05-11T07:21:05;101406.59;;;14.38;100.00
58975;BME280;44751;52.236;5.178;2023-05-11T10:21:23;101445.03;;;14.41;100.00
58975;BME280;44751;52.236;5.178;2023-05-11T10:23:49;101444.63;;;14.23;100.00
58975;BME280;44751;52.236;5.178;2023-05-11T10:26:16;101447.72;;;14.04;100.00
58975;BME280;44751;52.236;5.178;2023-05-11T10:28:43;101450.81;;;14.01;100.00
58975;BME280;44751;52.236;5.178;2023-05-11T10:31:10;101447.31;;;14.07;100.00
58975;BME280;44751;52.236;5.178;2023-05-11T10:33:42;101457.53;;;14.05;100.00
58975;BME280;44751;52.236;5.178;2023-05-11T10:36:09;101463.78;;;13.91;100.00
58975;BME280;44751;52.236;5.178;2023-05-11T10:38:36;101464.91;;;13.97;100.00
58975;BME280;44751;52.236;5.178;2023-05-11T10:41:09;101449.97;;;13.86;100.00
58975;BME280;44751;52.236;5.178;2023-05-11T10:44:02;101456.78;;;13.81;100.00
58975;BME280;44751;52.236;5.178;2023-05-11T10:52:42;101457.41;;;13.84;100.00
58975;BME280;44751;52.236;5.178;2023-05-11T10:58:07;101465.19;;;13.87;100.00
58975;BME280;44751;52.236;5.178;2023-05-11T11:03:20;101472.97;;;13.75;100.00
58975;BME280;44751;52.236;5.178;2023-05-11T11:05:47;101468.34;;;13.75;100.00
58975;BME280;44751;52.236;5.178;2023-05-11T11:08:15;101466.88;;;13.73;100.00
58975;BME280;44751;52.236;5.178;2023-05-11T11:10:43;101465.19;;;13.72;100.00
58975;BME280;44751;52.236;5.178;2023-05-11T11:13:15;101461.44;;;13.73;100.00
58975;BME280;44751;52.236;5.178;2023-05-11T11:18:26;101467.44;;;13.83;100.00
58975;BME280;44751;52.236;5.178;2023-05-11T11:20:55;101462.47;;;13.87;100.00
58975;BME280;44751;52.236;5.178;2023-05-11T11:26:11;101450.22;;;13.91;100.00
58975;BME280;44751;52.236;5.178;2023-05-11T11:31:22;101459.50;;;13.97;100.00
58975;BME280;44751;52.236;5.178;2023-05-11T11:33:49;101462.09;;;14.05;100.00
58975;BME280;44751;52.236;5.178;2023-05-11T11:36:16;101458.56;;;14.19;100.00
58975;BME280;44751;52.236;5.178;2023-05-11T11:38:58;101464.34;;;14.31;100.00
58975;BME280;44751;52.236;5.178;2023-05-11T11:41:29;101463.22;;;14.26;100.00
58975;BME280;44751;52.236;5.178;2023-05-11T11:44:00;101460.78;;;14.31;100.00
58975;BME280;44751;52.236;5.178;2023-05-11T11:46:28;101463.31;;;14.32;100.00
58975;BME280;44751;52.236;5.178;2023-05-11T11:49:06;101463.28;;;14.48;100.00
58975;BME280;44751;52.236;5.178;2023-05-11T11:51:37;101455.16;;;14.48;100.00
58975;BME280;44751;52.236;5.178;2023-05-11T11:54:05;101462.13;;;14.57;100.00
58975;BME280;44751;52.236;5.178;2023-05-11T11:59:00;101455.19;;;14.69;100.00
58975;BME280;44751;52.236;5.178;2023-05-11T12:01:36;101456.03;;;14.70;100.00
58975;BME280;44751;52.236;5.178;2023-05-11T12:06:35;101462.59;;;14.97;100.00
58975;BME280;44751;52.236;5.178;2023-05-11T12:09:21;101457.59;;;14.79;100.00
58975;BME280;44751;52.236;5.178;2023-05-11T12:11:48;101454.78;;;14.88;100.00
58975;BME280;44751;52.236;5.178;2023-05-11T12:14:15;101456.56;;;14.80;100.00
58975;BME280;44751;52.236;5.178;2023-05-11T12:16:58;101463.09;;;14.86;100.00
58975;BME280;44751;52.236;5.178;2023-05-11T12:19:25;101454.84;;;14.94;100.00
58975;BME280;44751;52.236;5.178;2023-05-11T12:21:52;101451.94;;;14.96;100.00
58975;BME280;44751;52.236;5.178;2023-05-11T12:24:22;101455.63;;;14.88;100.00
58975;BME280;44751;52.236;5.178;2023-05-11T12:26:49;101453.56;;;15.12;100.00
58975;BME280;44751;52.236;5.178;2023-05-11T12:29:15;101453.84;;;15.24;100.00
58975;BME280;44751;52.236;5.178;2023-05-11T12:31:44;101453.47;;;15.27;100.00
58975;BME280;44751;52.236;5.178;2023-05-11T12:34:18;101440.78;;;15.34;100.00
58975;BME280;44751;52.236;5.178;2023-05-11T12:37:04;101443.50;;;15.34;100.00
58975;BME280;44751;52.236;5.178;2023-05-11T12:39:35;101439.63;;;15.51;100.00
58975;BME280;44751;52.236;5.178;2023-05-11T12:42:03;101442.00;;;15.60;100.00
58975;BME280;44751;52.236;5.178;2023-05-11T12:44:31;101433.19;;;15.52;100.00
58975;BME280;44751;52.236;5.178;2023-05-11T12:46:58;101431.53;;;15.57;100.00
58975;BME280;44751;52.236;5.178;2023-05-11T12:49:25;101438.91;;;15.64;100.00
58975;BME280;44751;52.236;5.178;2023-05-11T12:54:40;101446.31;;;15.77;100.00
58975;BME280;44751;52.236;5.178;2023-05-11T12:57:21;101454.63;;;15.68;100.00
58975;BME280;44751;52.236;5.178;2023-05-11T13:00:07;101449.84;;;15.77;100.00
58975;BME280;44751;52.236;5.178;2023-05-11T13:02:53;101458.19;;;15.97;100.00
58975;BME280;44751;52.236;5.178;2023-05-11T13:05:24;101454.97;;;15.94;100.00
58975;BME280;44751;52.236;5.178;2023-05-11T13:08:05;101451.09;;;15.74;100.00
58975;BME280;44751;52.236;5.178;2023-05-11T13:10:34;101455.28;;;15.77;100.00
58975;BME280;44751;52.236;5.178;2023-05-11T13:13:27;101445.03;;;15.72;100.00
58975;BME280;44751;52.236;5.178;2023-05-11T13:15:54;101447.75;;;15.72;100.00
58975;BME280;44751;52.236;5.178;2023-05-11T13:18:23;101455.91;;;15.72;100.00
58975;BME280;44751;52.236;5.178;2023-05-11T13:21:04;101454.88;;;15.73;100.00
58975;BME280;44751;52.236;5.178;2023-05-11T13:23:33;101453.66;;;15.83;100.00
58975;BME280;44751;52.236;5.178;2023-05-11T13:26:00;101456.50;;;15.96;100.00
58975;BME280;44751;52.236;5.178;2023-05-11T13:28:27;101450.09;;;16.11;100.00
58975;BME280;44751;52.236;5.178;2023-05-11T13:30:58;101456.22;;;16.20;100.00
58975;BME280;44751;52.236;5.178;2023-05-11T13:33:25;101452.41;;;15.85;100.00
58975;BME280;44751;52.236;5.178;2023-05-11T13:35:56;101453.59;;;15.98;100.00
58975;BME280;44751;52.236;5.178;2023-05-11T13:38:27;101453.50;;;16.20;100.00
58975;BME280;44751;52.236;5.178;2023-05-11T13:40:53;101445.75;;;16.30;100.00
58975;BME280;44751;52.236;5.178;2023-05-11T13:58:44;101438.59;;;16.78;100.00
58975;BME280;44751;52.236;5.178;2023-05-11T15:45:54;101445.00;;;16.50;100.00
58975;BME280;44751;52.236;5.178;2023-05-11T15:48:35;101459.50;;;16.57;100.00
58975;BME280;44751;52.236;5.178;2023-05-11T15:51:01;101463.88;;;16.58;100.00
58975;BME280;44751;52.236;5.178;2023-05-11T15:53:28;101455.88;;;16.43;100.00
58975;BME280;44751;52.236;5.178;2023-05-11T15:56:01;101454.56;;;16.25;100.00
58975;BME280;44751;52.236;5.178;2023-05-11T15:58:27;101460.81;;;16.26;100.00
58975;BME280;44751;52.236;5.178;2023-05-11T16:00:56;101460.63;;;16.27;100.00
58975;BME280;44751;52.236;5.178;2023-05-11T16:03:23;101462.34;;;16.29;100.00
58975;BME280;44751;52.236;5.178;2023-05-11T16:05:49;101457.53;;;16.37;100.00
58975;BME280;44751;52.236;5.178;2023-05-11T16:08:18;101463.34;;;16.27;100.00
58975;BME280;44751;52.236;5.178;2023-05-11T16:10:49;101457.09;;;16.27;100.00
58975;BME280;44751;52.236;5.178;2023-05-11T16:13:16;101455.44;;;16.33;100.00
58975;BME280;44751;52.236;5.178;2023-05-11T16:15:43;101451.47;;;16.35;100.00
58975;BME280;44751;52.236;5.178;2023-05-11T16:18:10;101447.50;;;16.38;100.00
58975;BME280;44751;52.236;5.178;2023-05-11T16:20:38;101456.72;;;16.44;100.00
58975;BME280;44751;52.236;5.178;2023-05-11T16:23:05;101454.63;;;16.46;100.00
58975;BME280;44751;52.236;5.178;2023-05-11T16:25:33;101459.38;;;16.30;100.00
58975;BME280;44751;52.236;5.178;2023-05-11T16:28:00;101454.94;;;16.16;100.00
58975;BME280;44751;52.236;5.178;2023-05-11T16:30:40;101449.03;;;16.12;100.00
58975;BME280;44751;52.236;5.178;2023-05-11T16:33:07;101455.72;;;16.09;100.00
58975;BME280;44751;52.236;5.178;2023-05-11T16:35:34;101455.28;;;15.99;100.00
58975;BME280;44751;52.236;5.178;2023-05-11T16:38:00;101457.84;;;15.85;100.00
58975;BME280;44751;52.236;5.178;2023-05-11T16:40:38;101450.91;;;16.05;100.00
58975;BME280;44751;52.236;5.178;2023-05-11T16:43:04;101443.81;;;16.10;100.00
58975;BME280;44751;52.236;5.178;2023-05-11T16:45:31;101445.34;;;16.26;100.00
58975;BME280;44751;52.236;5.178;2023-05-11T16:47:58;101448.91;;;16.27;100.00
58975;BME280;44751;52.236;5.178;2023-05-11T16:50:38;101446.63;;;16.31;100.00
58975;BME280;44751;52.236;5.178;2023-05-11T16:53:06;101448.50;;;16.30;100.00
58975;BME280;44751;52.236;5.178;2023-05-11T16:55:33;101449.88;;;16.12;100.00
58975;BME280;44751;52.236;5.178;2023-05-11T16:58:00;101448.44;;;16.17;100.00
58975;BME280;44751;52.236;5.178;2023-05-11T17:00:30;101454.72;;;16.10;100.00
58975;BME280;44751;52.236;5.178;2023-05-11T17:02:57;101456.94;;;16.00;100.00
58975;BME280;44751;52.236;5.178;2023-05-11T17:05:23;101464.19;;;15.93;100.00
58975;BME280;44751;52.236;5.178;2023-05-11T17:07:50;101460.75;;;15.77;100.00
58975;BME280;44751;52.236;5.178;2023-05-11T17:10:17;101459.72;;;15.78;100.00
58975;BME280;44751;52.236;5.178;2023-05-11T17:12:46;101467.72;;;15.58;100.00
58975;BME280;44751;52.236;5.178;2023-05-11T17:15:13;101474.03;;;15.58;100.00
58975;BME280;44751;52.236;5.178;2023-05-11T17:17:40;101468.31;;;15.53;100.00
58975;BME280;44751;52.236;5.178;2023-05-11T17:20:07;101483.00;;;15.59;100.00
58975;BME280;44751;52.236;5.178;2023-05-11T17:22:34;101477.41;;;15.39;100.00
58975;BME280;44751;52.236;5.178;2023-05-11T17:25:05;101474.88;;;15.37;100.00
58975;BME280;44751;52.236;5.178;2023-05-11T17:27:35;101478.91;;;15.41;100.00
58975;BME280;44751;52.236;5.178;2023-05-11T17:30:05;101472.59;;;15.41;100.00
58975;BME280;44751;52.236;5.178;2023-05-11T17:32:34;101471.84;;;15.47;100.00
58975;BME280;44751;52.236;5.178;2023-05-11T17:35:01;101476.47;;;15.53;100.00
58975;BME280;44751;52.236;5.178;2023-05-11T17:37:31;101474.09;;;15.43;100.00
58975;BME280;44751;52.236;5.178;2023-05-11T17:40:00;101470.06;;;15.39;100.00
58975;BME280;44751;52.236;5.178;2023-05-11T17:42:27;101481.97;;;15.09;100.00
58975;BME280;44751;52.236;5.178;2023-05-11T17:45:00;101482.03;;;15.16;100.00
58975;BME280;44751;52.236;5.178;2023-05-11T17:47:27;101475.41;;;15.26;100.00
58975;BME280;44751;52.236;5.178;2023-05-11T17:49:54;101474.69;;;15.17;100.00
58975;BME280;44751;52.236;5.178;2023-05-11T17:52:22;101485.13;;;15.13;100.00
58975;BME280;44751;52.236;5.178;2023-05-11T17:54:51;101480.69;;;15.05;100.00
58975;BME280;44751;52.236;5.178;2023-05-11T17:57:18;101479.41;;;14.86;100.00
58975;BME280;44751;52.236;5.178;2023-05-11T17:59:47;101475.78;;;14.79;100.00
58975;BME280;44751;52.236;5.178;2023-05-11T18:02:14;101480.09;;;14.73;100.00
58975;BME280;44751;52.236;5.178;2023-05-11T18:04:41;101486.94;;;14.69;100.00
58975;BME280;44751;52.236;5.178;2023-05-11T18:07:08;101484.69;;;14.72;100.00
58975;BME280;44751;52.236;5.178;2023-05-11T18:09:36;101484.97;;;14.78;100.00
58975;BME280;44751;52.236;5.178;2023-05-11T18:12:03;101482.53;;;14.68;100.00
58975;BME280;44751;52.236;5.178;2023-05-11T18:14:30;101481.59;;;14.61;100.00
58975;BME280;44751;52.236;5.178;2023-05-11T18:16:56;101486.31;;;14.52;100.00
58975;BME280;44751;52.236;5.178;2023-05-11T18:19:23;101486.31;;;14.52;100.00
58975;BME280;44751;52.236;5.178;2023-05-11T18:21:56;101481.72;;;14.52;100.00
58975;BME280;44751;52.236;5.178;2023-05-11T18:24:22;101486.44;;;14.43;100.00
58975;BME280;44751;52.236;5.178;2023-05-11T18:26:49;101496.91;;;14.31;100.00
58975;BME280;44751;52.236;5.178;2023-05-11T18:29:16;101501.09;;;14.34;100.00
58975;BME280;44751;52.236;5.178;2023-05-11T18:31:44;101501.78;;;14.36;100.00